This is the latest recevied weather packets stored in our database for station/object OE6JVE-13. If no packets are shown the sender has not sent any weather packets the latest 10 day(s).
| Time | Temp. | Humidity | Pressure | Rain* | Wind** | Luminosity | Snow |
|---|---|---|---|---|---|---|---|
| 1777959980 | 17.22° C | 46% | 1004.2 hPa | 0 mm | - | - | - |
| 1777959322 | 17.22° C | 47% | 1004.1 hPa | 0 mm | - | - | - |
| 1777958730 | 16.67° C | 46% | 1004.2 hPa | 0 mm | - | - | - |
| 1777958138 | 16.11° C | 49% | 1004.1 hPa | 0 mm | - | - | - |
| 1777957546 | 13.33° C | 60% | 1004.1 hPa | 0 mm | - | - | - |
| 1777956954 | 12.22° C | 66% | 1004.1 hPa | 0 mm | - | - | - |
| 1777956362 | 11.67° C | 66% | 1004.2 hPa | 0 mm | - | - | - |
| 1777955770 | 11.67° C | 64% | 1004.2 hPa | 0 mm | - | - | - |
| 1777955178 | 11.67° C | 62% | 1004.3 hPa | 0 mm | - | - | - |
| 1777954520 | 12.22° C | 58% | 1004.4 hPa | 0 mm | - | - | - |
| 1777953928 | 12.78° C | 57% | 1004.4 hPa | 0 mm | - | - | - |
| 1777953336 | 12.78° C | 56% | 1004.4 hPa | 0 mm | - | - | - |
| 1777952744 | 12.22° C | 60% | 1004.2 hPa | 0 mm | - | - | - |
| 1777952152 | 11.67° C | 62% | 1004.3 hPa | 0 mm | - | - | - |
| 1777951560 | 11.67° C | 62% | 1004.4 hPa | 0 mm | - | - | - |
| 1777950968 | 11.67° C | 62% | 1004.3 hPa | 0 mm | - | - | - |
| 1777950376 | 11.67° C | 61% | 1004.4 hPa | 0 mm | - | - | - |
| 1777949718 | 12.78° C | 55% | 1004.6 hPa | 0 mm | - | - | - |
| 1777949126 | 13.33° C | 52% | 1004.7 hPa | 0 mm | - | - | - |
| 1777948534 | 14.44° C | 49% | 1004.7 hPa | 0 mm | - | - | - |
| 1777947942 | 15° C | 46% | 1004.7 hPa | 0 mm | - | - | - |
| 1777947350 | 15° C | 45% | 1004.8 hPa | 0 mm | - | - | - |
| 1777946757 | 15° C | 47% | 1004.8 hPa | 0 mm | - | - | - |
| 1777946165 | 14.44° C | 48% | 1004.8 hPa | 0 mm | - | - | - |
| 1777945573 | 15° C | 48% | 1004.9 hPa | 0 mm | - | - | - |
* Rain latest hour (hover to see other rain measurements)
** Current wind speed in m/s (hover to see current wind gust speed)